Time;durP1;ratioP1;P1;durP2;ratioP2;P2;SDS_P1;SDS_P2;PMS_P1;PMS_P2;Temp;Humidity;BMP_temperature;BMP_pressure;BME280_temperature;BME280_humidity;BME280_pressure;Samples;Min_cycle;Max_cycle;Signal;HPM_P1;HPM_P2
2022/05/06 00:02:01;;;;;;;;;;;9.60;99.90;;;;;;5035256;28;19905;-71
2022/05/06 00:04:27;;;;;;;;;;;9.50;99.90;;;;;;5035807;28;19912;-70
2022/05/06 00:06:53;;;;;;;;;;;9.60;99.90;;;;;;5035182;28;19905;-72
2022/05/06 00:09:18;;;;;;;;;;;9.50;99.90;;;;;;5035130;28;19992;-71
2022/05/06 00:11:43;;;;;;;;;;;9.50;99.90;;;;;;5035289;28;19909;-70
2022/05/06 00:14:10;;;;;;;;;;;9.50;99.90;;;;;;5035008;28;20395;-72
2022/05/06 00:16:36;;;;;;;;;;;9.40;99.90;;;;;;5034898;28;19905;-71
2022/05/06 00:19:01;;;;;;;;;;;9.30;99.90;;;;;;5034938;28;20285;-72
2022/05/06 00:21:27;;;;;;;;;;;9.40;99.90;;;;;;5034886;28;19955;-71
2022/05/06 00:23:52;;;;;;;;;;;9.30;99.90;;;;;;5034816;28;19912;-69
2022/05/06 00:26:18;;;;;;;;;;;9.30;99.90;;;;;;5035080;28;19909;-70
2022/05/06 00:28:44;;;;;;;;;;;9.30;99.90;;;;;;5035059;28;19905;-71
2022/05/06 00:31:09;;;;;;;;;;;9.20;99.90;;;;;;5034642;28;19945;-69
2022/05/06 00:33:35;;;;;;;;;;;9.20;99.90;;;;;;5034957;28;19967;-70
2022/05/06 00:36:01;;;;;;;;;;;9.20;99.90;;;;;;5034624;28;19931;-72
2022/05/06 00:38:27;;;;;;;;;;;9.10;99.90;;;;;;5035166;28;19905;-71
2022/05/06 00:40:53;;;;;;;;;;;9.00;99.90;;;;;;5034829;28;19913;-71
2022/05/06 00:43:19;;;;;;;;;;;9.00;99.90;;;;;;5035047;28;20336;-69
2022/05/06 00:45:47;;;;;;;;;;;9.00;99.90;;;;;;5034704;28;19928;-71
2022/05/06 00:48:13;;;;;;;;;;;8.90;99.90;;;;;;5034381;28;19905;-70
2022/05/06 00:50:38;;;;;;;;;;;8.90;99.90;;;;;;5034304;28;19920;-71
2022/05/06 00:53:06;;;;;;;;;;;8.90;99.90;;;;;;5034334;28;19905;-70
2022/05/06 00:55:33;;;;;;;;;;;8.90;99.90;;;;;;5034537;28;19905;-70
2022/05/06 00:57:58;;;;;;;;;;;8.90;99.90;;;;;;5033501;28;19909;-70
2022/05/06 01:00:24;;;;;;;;;;;8.90;99.90;;;;;;5034261;28;19912;-70
2022/05/06 01:02:49;;;;;;;;;;;8.80;99.90;;;;;;5034166;28;19905;-70
2022/05/06 01:05:15;;;;;;;;;;;8.80;99.90;;;;;;5034677;28;19992;-71
2022/05/06 01:07:41;;;;;;;;;;;8.80;99.90;;;;;;5034102;28;20050;-70
2022/05/06 01:10:07;;;;;;;;;;;8.80;99.90;;;;;;5034209;28;19974;-71
2022/05/06 01:12:33;;;;;;;;;;;8.80;99.90;;;;;;5033948;28;19905;-71
2022/05/06 01:14:59;;;;;;;;;;;8.70;99.90;;;;;;5034204;28;20265;-72
2022/05/06 01:17:24;;;;;;;;;;;8.70;99.90;;;;;;5033952;28;19905;-71
2022/05/06 01:19:50;;;;;;;;;;;8.70;99.90;;;;;;5033887;28;20372;-69
2022/05/06 01:22:16;;;;;;;;;;;8.70;99.90;;;;;;5034417;28;19971;-71
2022/05/06 01:24:41;;;;;;;;;;;8.80;99.90;;;;;;5033642;28;19912;-70
2022/05/06 01:27:09;;;;;;;;;;;8.80;99.90;;;;;;5034057;28;19912;-70
2022/05/06 01:29:35;;;;;;;;;;;8.90;99.90;;;;;;5033700;28;20449;-69
2022/05/06 01:32:01;;;;;;;;;;;9.10;99.90;;;;;;5033721;28;19912;-70
2022/05/06 01:34:28;;;;;;;;;;;9.30;99.90;;;;;;5033984;28;20435;-70
2022/05/06 01:36:55;;;;;;;;;;;9.40;99.90;;;;;;5033685;28;19912;-72
2022/05/06 01:39:23;;;;;;;;;;;9.50;99.90;;;;;;5033672;28;19955;-70
2022/05/06 01:41:51;;;;;;;;;;;9.50;99.90;;;;;;5032311;28;20285;-70
2022/05/06 01:44:18;;;;;;;;;;;9.50;99.90;;;;;;5033635;28;19905;-70
2022/05/06 01:46:44;;;;;;;;;;;9.50;99.90;;;;;;5033895;28;19952;-72
2022/05/06 01:49:11;;;;;;;;;;;9.50;99.90;;;;;;5033832;28;20312;-71
2022/05/06 01:51:38;;;;;;;;;;;9.50;99.90;;;;;;5033737;28;19913;-70
2022/05/06 01:54:04;;;;;;;;;;;9.60;99.90;;;;;;5033822;28;19905;-71
2022/05/06 01:56:29;;;;;;;;;;;9.70;99.90;;;;;;5033751;28;19912;-69
2022/05/06 01:58:55;;;;;;;;;;;9.70;99.90;;;;;;5033485;28;19905;-71
2022/05/06 02:01:20;;;;;;;;;;;9.80;99.90;;;;;;5033446;28;20429;-70
2022/05/06 02:06:30;;;;;;;;;;;9.90;99.90;;;;;;5033444;28;19912;-71
2022/05/06 02:08:55;;;;;;;;;;;9.90;99.90;;;;;;5033877;28;20003;-71
2022/05/06 02:11:21;;;;;;;;;;;9.90;99.90;;;;;;5037568;28;19916;-69
2022/05/06 02:13:46;;;;;;;;;;;10.00;99.90;;;;;;5037313;28;19905;-71
2022/05/06 02:16:12;;;;;;;;;;;10.00;99.90;;;;;;5037457;28;19905;-70
2022/05/06 02:18:37;;;;;;;;;;;10.10;99.90;;;;;;5037222;28;20312;-70
2022/05/06 02:21:03;;;;;;;;;;;10.10;99.90;;;;;;5037201;28;19959;-71
2022/05/06 02:23:28;;;;;;;;;;;10.20;99.90;;;;;;5037176;28;19916;-71
2022/05/06 02:25:54;;;;;;;;;;;10.20;99.90;;;;;;5037414;28;19905;-71
2022/05/06 02:28:20;;;;;;;;;;;10.30;99.90;;;;;;5037053;28;19909;-71
2022/05/06 02:33:31;;;;;;;;;;;10.40;99.90;;;;;;5036722;28;19912;-70
2022/05/06 02:35:57;;;;;;;;;;;10.40;99.90;;;;;;5037474;28;20404;-70
2022/05/06 02:38:24;;;;;;;;;;;10.40;99.90;;;;;;5036828;28;19909;-71
2022/05/06 02:40:49;;;;;;;;;;;10.40;99.90;;;;;;5037331;28;20360;-70
2022/05/06 02:43:15;;;;;;;;;;;10.50;99.90;;;;;;5037040;28;19905;-71
2022/05/06 02:45:41;;;;;;;;;;;10.50;99.90;;;;;;5035418;28;19912;-71
2022/05/06 02:48:07;;;;;;;;;;;10.50;99.90;;;;;;5036673;28;19905;-70
2022/05/06 02:50:33;;;;;;;;;;;10.60;99.90;;;;;;5036542;28;19909;-70
2022/05/06 02:52:58;;;;;;;;;;;10.50;99.90;;;;;;5036877;28;19992;-71
2022/05/06 02:55:24;;;;;;;;;;;10.40;99.90;;;;;;5036550;28;19995;-71
2022/05/06 02:57:50;;;;;;;;;;;10.30;99.90;;;;;;5036773;28;20069;-70
2022/05/06 03:00:16;;;;;;;;;;;10.30;99.90;;;;;;5036433;28;19905;-71
2022/05/06 03:02:41;;;;;;;;;;;10.40;99.90;;;;;;5036407;28;19928;-71
2022/05/06 03:05:07;;;;;;;;;;;10.40;99.90;;;;;;5036349;28;19912;-71
2022/05/06 03:07:33;;;;;;;;;;;10.50;99.90;;;;;;5036883;28;19905;-71
2022/05/06 03:09:58;;;;;;;;;;;10.60;99.90;;;;;;5036494;28;19955;-71
2022/05/06 03:12:26;;;;;;;;;;;10.60;99.90;;;;;;5036263;28;19909;-72
2022/05/06 03:14:52;;;;;;;;;;;10.50;99.90;;;;;;5036379;28;19944;-71
2022/05/06 03:17:18;;;;;;;;;;;10.50;99.90;;;;;;5036190;28;19912;-70
2022/05/06 03:19:45;;;;;;;;;;;10.50;99.90;;;;;;5036098;28;19919;-70
2022/05/06 03:22:10;;;;;;;;;;;10.50;99.90;;;;;;5034003;28;19905;-70
2022/05/06 03:24:36;;;;;;;;;;;10.40;99.90;;;;;;5035776;28;19920;-70
2022/05/06 03:27:01;;;;;;;;;;;10.40;99.90;;;;;;5035966;28;19906;-71
2022/05/06 03:29:27;;;;;;;;;;;10.50;99.90;;;;;;5036196;28;20265;-71
2022/05/06 03:31:53;;;;;;;;;;;10.60;99.90;;;;;;5035757;28;20293;-71
2022/05/06 03:34:19;;;;;;;;;;;10.60;99.90;;;;;;5035849;28;19916;-70
2022/05/06 03:36:45;;;;;;;;;;;10.60;99.90;;;;;;5036069;28;19905;-70
2022/05/06 03:39:11;;;;;;;;;;;10.70;99.90;;;;;;5035756;28;19912;-71
2022/05/06 03:41:37;;;;;;;;;;;10.70;99.90;;;;;;5035684;28;19905;-70
2022/05/06 03:44:03;;;;;;;;;;;10.60;99.90;;;;;;5035895;28;20369;-72
2022/05/06 03:46:28;;;;;;;;;;;10.60;99.90;;;;;;5035853;28;19908;-70
2022/05/06 03:48:54;;;;;;;;;;;10.60;99.90;;;;;;5036096;28;19905;-70
2022/05/06 03:51:22;;;;;;;;;;;10.60;99.90;;;;;;5035416;28;19915;-71
2022/05/06 03:53:47;;;;;;;;;;;10.60;99.90;;;;;;5035460;28;19912;-71
2022/05/06 03:56:13;;;;;;;;;;;10.60;99.90;;;;;;5035434;28;20320;-70
2022/05/06 03:58:38;;;;;;;;;;;10.70;99.90;;;;;;5035896;28;19991;-71
2022/05/06 04:01:04;;;;;;;;;;;10.70;99.90;;;;;;5035317;28;19905;-70
2022/05/06 04:03:31;;;;;;;;;;;10.70;99.90;;;;;;5033980;28;19905;-71
2022/05/06 04:05:57;;;;;;;;;;;10.70;99.90;;;;;;5035226;28;20396;-71
2022/05/06 04:08:23;;;;;;;;;;;10.70;99.90;;;;;;5035736;28;19941;-71
2022/05/06 04:10:48;;;;;;;;;;;10.80;99.90;;;;;;5035342;28;19956;-70
2022/05/06 04:13:16;;;;;;;;;;;10.80;99.90;;;;;;5035184;28;19905;-71
2022/05/06 04:15:42;;;;;;;;;;;10.70;99.90;;;;;;5035303;28;19939;-71
2022/05/06 04:18:08;;;;;;;;;;;10.70;99.90;;;;;;5017294;28;19905;-70
2022/05/06 04:23:37;;;;;;;;;;;10.70;99.90;;;;;;5035173;28;20360;-69
2022/05/06 04:26:03;;;;;;;;;;;10.70;99.90;;;;;;5035154;28;20441;-71
2022/05/06 04:28:29;;;;;;;;;;;10.70;99.90;;;;;;5034753;28;20357;-69
2022/05/06 04:30:55;;;;;;;;;;;10.80;99.90;;;;;;5034673;28;20004;-70
2022/05/06 04:33:21;;;;;;;;;;;10.80;99.90;;;;;;5034219;28;20326;-73
2022/05/06 04:35:48;;;;;;;;;;;10.70;99.90;;;;;;5034947;28;19905;-71
2022/05/06 04:38:13;;;;;;;;;;;10.80;99.90;;;;;;5035161;28;19940;-70
2022/05/06 04:40:40;;;;;;;;;;;10.80;99.90;;;;;;5034845;28;19944;-70
2022/05/06 04:43:06;;;;;;;;;;;10.90;99.90;;;;;;5034542;28;20419;-70
2022/05/06 04:45:35;;;;;;;;;;;10.80;99.90;;;;;;5034486;28;19944;-70
2022/05/06 04:48:01;;;;;;;;;;;10.90;99.90;;;;;;5034658;28;19955;-69
2022/05/06 04:50:27;;;;;;;;;;;10.90;99.90;;;;;;5034301;28;19909;-70
2022/05/06 04:52:53;;;;;;;;;;;10.80;99.90;;;;;;5034893;28;19992;-71
2022/05/06 04:55:19;;;;;;;;;;;10.90;99.90;;;;;;5034597;28;19921;-69
2022/05/06 04:57:44;;;;;;;;;;;11.00;99.90;;;;;;5034318;28;20362;-71
2022/05/06 05:00:10;;;;;;;;;;;11.10;99.90;;;;;;5034242;28;19905;-71
2022/05/06 05:02:37;;;;;;;;;;;11.10;99.90;;;;;;5034172;28;20381;-71
2022/05/06 05:05:03;;;;;;;;;;;11.10;99.90;;;;;;5034128;28;19940;-69
2022/05/06 05:07:28;;;;;;;;;;;11.20;99.90;;;;;;5034089;28;20381;-71
2022/05/06 05:09:54;;;;;;;;;;;11.20;99.90;;;;;;5033984;28;19905;-71
2022/05/06 05:12:19;;;;;;;;;;;11.20;99.90;;;;;;5034037;28;19912;-70
2022/05/06 05:14:45;;;;;;;;;;;11.30;99.90;;;;;;5033656;28;19959;-71
2022/05/06 05:17:13;;;;;;;;;;;11.30;99.90;;;;;;5034508;28;19905;-71
2022/05/06 05:19:39;;;;;;;;;;;11.30;99.90;;;;;;5034174;28;19964;-72
2022/05/06 05:22:05;;;;;;;;;;;11.40;99.90;;;;;;5033878;28;19992;-71
2022/05/06 05:24:30;;;;;;;;;;;11.40;99.90;;;;;;5033661;28;20332;-70
2022/05/06 05:26:57;;;;;;;;;;;11.40;99.90;;;;;;5034064;28;19982;-70
2022/05/06 05:29:23;;;;;;;;;;;11.40;99.90;;;;;;5033781;28;20437;-70
2022/05/06 05:31:49;;;;;;;;;;;11.50;99.90;;;;;;5033717;28;19917;-71
2022/05/06 05:34:15;;;;;;;;;;;11.70;99.90;;;;;;5033768;28;19955;-70
2022/05/06 05:36:40;;;;;;;;;;;11.70;99.90;;;;;;5034023;28;19905;-71
2022/05/06 05:39:06;;;;;;;;;;;11.80;99.90;;;;;;5033634;28;20391;-70
2022/05/06 05:41:32;;;;;;;;;;;11.90;99.90;;;;;;5034091;28;19987;-69
2022/05/06 05:49:26;;;;;;;;;;;12.20;99.90;;;;;;5033639;28;19928;-70
2022/05/06 05:51:52;;;;;;;;;;;12.40;99.90;;;;;;5033473;28;20358;-70
2022/05/06 05:54:17;;;;;;;;;;;12.40;99.90;;;;;;5033508;28;19912;-70
2022/05/06 05:56:43;;;;;;;;;;;12.40;99.90;;;;;;5033767;28;19906;-71
2022/05/06 05:59:08;;;;;;;;;;;12.30;99.90;;;;;;5033475;28;19909;-71
2022/05/06 06:01:34;;;;;;;;;;;12.40;99.90;;;;;;5033455;28;19911;-70
2022/05/06 06:03:59;;;;;;;;;;;12.40;99.90;;;;;;5015750;28;19905;-71
2022/05/06 06:06:25;;;;;;;;;;;12.40;99.90;;;;;;5033752;28;19951;-70
2022/05/06 06:08:50;;;;;;;;;;;12.60;99.90;;;;;;5033470;28;19905;-72
2022/05/06 06:11:17;;;;;;;;;;;12.80;99.90;;;;;;5033355;28;19959;-71
2022/05/06 06:13:43;;;;;;;;;;;13.00;99.90;;;;;;5033683;28;19905;-71
2022/05/06 06:16:08;;;;;;;;;;;13.10;99.90;;;;;;5033336;28;20335;-72
2022/05/06 06:18:34;;;;;;;;;;;13.10;99.90;;;;;;5033642;28;19905;-70
2022/05/06 06:21:00;;;;;;;;;;;13.20;99.90;;;;;;5033308;28;19905;-71
2022/05/06 06:23:25;;;;;;;;;;;13.30;99.90;;;;;;5033117;28;19921;-70
2022/05/06 06:25:51;;;;;;;;;;;13.50;99.90;;;;;;5033531;28;19955;-70
2022/05/06 06:28:16;;;;;;;;;;;13.60;99.90;;;;;;5033219;28;19912;-69
2022/05/06 06:30:42;;;;;;;;;;;13.50;99.90;;;;;;5033135;28;19913;-70
2022/05/06 06:33:07;;;;;;;;;;;13.40;99.90;;;;;;5033204;28;19974;-70
2022/05/06 06:35:33;;;;;;;;;;;13.50;99.90;;;;;;5033469;28;19905;-72
2022/05/06 06:38:00;;;;;;;;;;;13.40;99.90;;;;;;5033130;28;19909;-71
2022/05/06 06:40:25;;;;;;;;;;;13.50;99.90;;;;;;5033429;28;19941;-69
2022/05/06 06:42:51;;;;;;;;;;;13.50;99.90;;;;;;5033426;28;19909;-71
2022/05/06 06:45:16;;;;;;;;;;;13.40;99.90;;;;;;5033108;28;19905;-69
2022/05/06 06:47:43;;;;;;;;;;;13.60;99.90;;;;;;5033345;28;19905;-70
2022/05/06 06:50:08;;;;;;;;;;;13.70;99.90;;;;;;5032980;28;19920;-70
2022/05/06 06:52:34;;;;;;;;;;;13.70;99.90;;;;;;5033059;28;19905;-68
2022/05/06 06:55:00;;;;;;;;;;;14.10;99.90;;;;;;5033256;28;19905;-70
2022/05/06 06:57:26;;;;;;;;;;;14.30;99.90;;;;;;5035615;28;19905;-68
2022/05/06 06:59:52;;;;;;;;;;;15.10;99.90;;;;;;5018753;28;19905;-69
2022/05/06 07:02:17;;;;;;;;;;;15.60;99.90;;;;;;5037025;28;19911;-69
2022/05/06 07:04:43;;;;;;;;;;;16.90;99.90;;;;;;5036399;28;19905;-70
2022/05/06 07:12:37;;;;;;;;;;;18.90;99.90;;;;;;5036599;28;19982;-71
2022/05/06 07:15:03;;;;;;;;;;;19.50;99.90;;;;;;5036113;28;20293;-69
2022/05/06 07:17:29;;;;;;;;;;;21.90;99.90;;;;;;5036694;28;19909;-69
2022/05/06 07:19:54;;;;;;;;;;;22.90;99.90;;;;;;5036396;28;19971;-70
2022/05/06 07:22:20;;;;;;;;;;;23.20;99.90;;;;;;5036352;28;19955;-70
2022/05/06 07:24:45;;;;;;;;;;;22.80;98.50;;;;;;5035803;28;19913;-69
2022/05/06 07:27:11;;;;;;;;;;;22.30;99.90;;;;;;5036530;28;19905;-70
2022/05/06 07:29:36;;;;;;;;;;;22.40;98.80;;;;;;5018107;28;20342;-69
2022/05/06 07:32:02;;;;;;;;;;;21.60;99.20;;;;;;5018016;28;19913;-69
2022/05/06 07:34:28;;;;;;;;;;;20.80;99.90;;;;;;5035821;28;19909;-68
2022/05/06 07:36:54;;;;;;;;;;;20.00;99.90;;;;;;5035794;28;20354;-69
2022/05/06 07:39:20;;;;;;;;;;;21.20;99.90;;;;;;5036021;28;19912;-71
2022/05/06 07:41:46;;;;;;;;;;;21.60;99.90;;;;;;5035736;28;19905;-72
2022/05/06 07:44:12;;;;;;;;;;;21.00;99.90;;;;;;5035356;28;19905;-70
2022/05/06 07:46:37;;;;;;;;;;;21.50;99.90;;;;;;5035924;28;20388;-72
2022/05/06 07:49:04;;;;;;;;;;;21.80;99.70;;;;;;5035585;28;19970;-75
2022/05/06 07:51:29;;;;;;;;;;;22.50;99.90;;;;;;5035770;28;20473;-76
2022/05/06 07:53:56;;;;;;;;;;;23.60;97.10;;;;;;5035479;28;19944;-75
2022/05/06 07:56:25;;;;;;;;;;;22.40;97.50;;;;;;5035379;28;19912;-74
2022/05/06 07:58:53;;;;;;;;;;;21.90;99.00;;;;;;5035663;28;20265;-70
2022/05/06 08:04:32;;;;;;;;;;;22.90;98.80;;;;;;5035403;28;19909;-70
2022/05/06 08:07:08;;;;;;;;;;;24.80;94.70;;;;;;4974288;28;19910;-72
2022/05/06 08:09:34;;;;;;;;;;;27.90;92.00;;;;;;5022130;28;19928;-72
2022/05/06 08:12:00;;;;;;;;;;;29.20;88.30;;;;;;5035075;28;19916;-72
2022/05/06 08:14:25;;;;;;;;;;;30.00;84.50;;;;;;5035389;28;19905;-69
2022/05/06 08:16:51;;;;;;;;;;;32.00;77.70;;;;;;5035019;28;20247;-72
2022/05/06 08:19:17;;;;;;;;;;;32.50;73.40;;;;;;5035077;28;19992;-72
2022/05/06 08:21:43;;;;;;;;;;;33.20;69.40;;;;;;5034948;28;19905;-66
2022/05/06 08:24:08;;;;;;;;;;;33.50;66.60;;;;;;5034799;28;19924;-68
2022/05/06 08:26:34;;;;;;;;;;;33.40;65.60;;;;;;5034878;28;19905;-68
2022/05/06 08:29:00;;;;;;;;;;;33.50;65.00;;;;;;5035402;28;19940;-73
2022/05/06 08:31:27;;;;;;;;;;;33.60;63.30;;;;;;5034684;28;19967;-68
2022/05/06 08:33:53;;;;;;;;;;;34.30;61.40;;;;;;5035007;28;19912;-72
2022/05/06 08:36:19;;;;;;;;;;;33.70;60.90;;;;;;5034682;28;19908;-70
2022/05/06 08:38:45;;;;;;;;;;;33.70;61.10;;;;;;5034635;28;20281;-69
2022/05/06 08:41:11;;;;;;;;;;;34.90;59.30;;;;;;5034855;28;19912;-74
2022/05/06 08:43:39;;;;;;;;;;;33.80;58.60;;;;;;5034533;28;19956;-71
2022/05/06 08:51:33;;;;;;;;;;;34.60;58.00;;;;;;5034472;28;20289;-72
2022/05/06 08:53:59;;;;;;;;;;;36.00;55.90;;;;;;5034927;28;20003;-73
2022/05/06 08:56:24;;;;;;;;;;;36.60;55.00;;;;;;5034305;28;19971;-73
2022/05/06 08:58:50;;;;;;;;;;;36.70;54.40;;;;;;5034276;28;19905;-74
2022/05/06 09:01:20;;;;;;;;;;;36.30;54.50;;;;;;5034719;28;19928;-72
2022/05/06 09:03:48;;;;;;;;;;;36.60;53.60;;;;;;5032621;28;20277;-72
2022/05/06 09:06:28;;;;;;;;;;;37.00;53.10;;;;;;5034657;28;19905;-71
2022/05/06 09:08:54;;;;;;;;;;;37.10;52.40;;;;;;5034063;28;19944;-72
2022/05/06 09:14:04;;;;;;;;;;;37.40;51.70;;;;;;5034121;28;19931;-72
2022/05/06 09:16:44;;;;;;;;;;;36.60;51.40;;;;;;5032625;28;20004;-73
2022/05/06 09:19:10;;;;;;;;;;;36.60;51.90;;;;;;5033882;28;19912;-73
2022/05/06 09:21:36;;;;;;;;;;;36.60;51.20;;;;;;5033906;28;19905;-72
2022/05/06 09:24:14;;;;;;;;;;;36.80;51.60;;;;;;5034062;28;19913;-78
2022/05/06 09:26:54;;;;;;;;;;;37.40;51.40;;;;;;5033857;28;19948;-78
2022/05/06 09:29:26;;;;;;;;;;;36.90;50.90;;;;;;5015779;28;19917;-75
2022/05/06 09:31:54;;;;;;;;;;;37.00;50.40;;;;;;5033677;28;20051;-72
2022/05/06 09:34:26;;;;;;;;;;;38.30;49.90;;;;;;5033727;28;19909;-73
2022/05/06 09:36:51;;;;;;;;;;;38.50;49.40;;;;;;5015735;28;19909;-71
2022/05/06 09:39:17;;;;;;;;;;;38.60;49.10;;;;;;5033734;28;19905;-72
2022/05/06 09:41:42;;;;;;;;;;;38.50;49.40;;;;;;5033942;28;19975;-71
2022/05/06 09:44:08;;;;;;;;;;;38.90;49.10;;;;;;5033660;28;19995;-72
2022/05/06 09:46:35;;;;;;;;;;;38.40;48.80;;;;;;5034208;28;19951;-73
2022/05/06 09:49:02;;;;;;;;;;;38.90;48.40;;;;;;5033912;28;20369;-71
2022/05/06 09:51:29;;;;;;;;;;;38.50;48.20;;;;;;5033855;28;19959;-71
2022/05/06 09:53:56;;;;;;;;;;;37.10;49.40;;;;;;5033576;28;19908;-72
2022/05/06 09:56:22;;;;;;;;;;;37.50;49.50;;;;;;5033582;28;20266;-72
2022/05/06 09:58:52;;;;;;;;;;;37.00;49.50;;;;;;5033536;28;19905;-72
2022/05/06 10:01:18;;;;;;;;;;;37.70;49.00;;;;;;5033492;28;20441;-72
2022/05/06 10:03:44;;;;;;;;;;;38.40;49.10;;;;;;5033797;28;19992;-72
2022/05/06 10:06:10;;;;;;;;;;;37.30;48.90;;;;;;5033427;28;19955;-71
2022/05/06 10:08:37;;;;;;;;;;;37.50;49.00;;;;;;5033451;28;19968;-72
2022/05/06 10:11:04;;;;;;;;;;;38.60;48.60;;;;;;5033331;28;20365;-71
2022/05/06 10:13:30;;;;;;;;;;;38.80;47.60;;;;;;5033361;28;19909;-74
2022/05/06 10:15:56;;;;;;;;;;;38.60;48.00;;;;;;5033291;28;20349;-73
2022/05/06 10:18:35;;;;;;;;;;;38.70;47.90;;;;;;5033329;28;19912;-71
2022/05/06 10:21:01;;;;;;;;;;;39.00;47.30;;;;;;5033579;28;19912;-71
2022/05/06 10:23:45;;;;;;;;;;;38.70;47.00;;;;;;5033118;28;19909;-71
2022/05/06 10:26:29;;;;;;;;;;;37.80;47.50;;;;;;5033825;28;19913;-72
2022/05/06 10:34:23;;;;;;;;;;;38.80;47.00;;;;;;5037326;28;19955;-71
2022/05/06 10:36:48;;;;;;;;;;;40.00;47.00;;;;;;5037496;28;19909;-72
2022/05/06 10:39:37;;;;;;;;;;;40.40;46.10;;;;;;5036916;28;19905;-71
2022/05/06 10:42:06;;;;;;;;;;;40.30;46.50;;;;;;5011206;28;19905;-72
2022/05/06 10:44:34;;;;;;;;;;;39.20;46.30;;;;;;5036822;28;20372;-72
2022/05/06 10:47:00;;;;;;;;;;;39.50;46.70;;;;;;5037037;28;19911;-71
2022/05/06 10:49:35;;;;;;;;;;;39.70;46.40;;;;;;5036706;28;20285;-72
2022/05/06 10:52:15;;;;;;;;;;;39.80;45.70;;;;;;5037154;28;20051;-72
2022/05/06 10:54:41;;;;;;;;;;;37.20;46.50;;;;;;5036913;28;19928;-71
2022/05/06 10:57:07;;;;;;;;;;;35.10;48.10;;;;;;5036579;28;20374;-73
2022/05/06 10:59:51;;;;;;;;;;;35.60;48.50;;;;;;5036460;28;19905;-72
2022/05/06 11:02:20;;;;;;;;;;;33.00;50.50;;;;;;5036490;28;20336;-72
2022/05/06 11:04:52;;;;;;;;;;;32.90;53.00;;;;;;5036410;28;19905;-73
2022/05/06 11:07:18;;;;;;;;;;;35.70;50.00;;;;;;5036935;28;20269;-71
2022/05/06 11:09:44;;;;;;;;;;;37.10;48.60;;;;;;5036591;28;19905;-72
2022/05/06 11:12:10;;;;;;;;;;;38.10;47.50;;;;;;5036251;28;20361;-71
2022/05/06 11:14:36;;;;;;;;;;;38.50;47.20;;;;;;5036557;28;19905;-71
2022/05/06 11:17:18;;;;;;;;;;;37.60;48.20;;;;;;5036121;28;19991;-72
2022/05/06 11:19:43;;;;;;;;;;;38.40;47.80;;;;;;5036307;28;19996;-73
2022/05/06 11:22:09;;;;;;;;;;;35.10;49.00;;;;;;5035964;28;19944;-72
2022/05/06 11:24:35;;;;;;;;;;;31.60;52.30;;;;;;5035873;28;19920;-71
2022/05/06 11:27:19;;;;;;;;;;;31.20;53.50;;;;;;5036332;28;19967;-71
2022/05/06 11:29:58;;;;;;;;;;;30.90;55.80;;;;;;5036024;28;19905;-71
2022/05/06 11:32:24;;;;;;;;;;;32.30;52.10;;;;;;5035922;28;19963;-72
2022/05/06 11:34:53;;;;;;;;;;;33.30;52.60;;;;;;5036149;28;19905;-72
2022/05/06 11:37:28;;;;;;;;;;;34.60;50.50;;;;;;5035843;28;19954;-70
2022/05/06 11:42:37;;;;;;;;;;;35.40;50.00;;;;;;5035417;28;19951;-71
2022/05/06 11:47:48;;;;;;;;;;;31.30;53.10;;;;;;5035686;28;19919;-72
2022/05/06 11:50:14;;;;;;;;;;;29.10;55.70;;;;;;5036112;28;19905;-70
2022/05/06 11:52:40;;;;;;;;;;;27.40;58.40;;;;;;5035529;28;19913;-72
2022/05/06 11:55:07;;;;;;;;;;;27.40;60.00;;;;;;5035528;28;19951;-72
2022/05/06 11:57:36;;;;;;;;;;;28.10;58.80;;;;;;5034139;28;20254;-71
2022/05/06 12:00:03;;;;;;;;;;;28.20;58.60;;;;;;5035680;28;19905;-71
2022/05/06 12:02:29;;;;;;;;;;;28.40;58.70;;;;;;5035374;28;19951;-70
2022/05/06 12:04:54;;;;;;;;;;;27.20;59.60;;;;;;5035570;28;19905;-71
2022/05/06 12:07:20;;;;;;;;;;;26.00;60.90;;;;;;5035503;28;19907;-70
2022/05/06 12:09:46;;;;;;;;;;;25.90;60.00;;;;;;5035219;28;19905;-71
2022/05/06 12:12:12;;;;;;;;;;;26.10;60.50;;;;;;5035364;28;19909;-71
2022/05/06 12:14:38;;;;;;;;;;;27.00;60.30;;;;;;5017288;28;19912;-71
2022/05/06 12:17:14;;;;;;;;;;;27.70;58.70;;;;;;5017277;28;19905;-71
2022/05/06 12:19:43;;;;;;;;;;;27.40;58.40;;;;;;5035354;28;19909;-72
2022/05/06 12:22:15;;;;;;;;;;;27.30;58.10;;;;;;5035233;28;19940;-71
2022/05/06 12:24:45;;;;;;;;;;;27.50;57.20;;;;;;5034724;28;19912;-72
2022/05/06 12:27:11;;;;;;;;;;;27.70;58.60;;;;;;5035158;28;19912;-71
2022/05/06 12:29:41;;;;;;;;;;;28.40;57.50;;;;;;5034836;28;19909;-71
2022/05/06 12:32:07;;;;;;;;;;;28.50;58.60;;;;;;5035028;28;19913;-71
2022/05/06 12:34:33;;;;;;;;;;;28.00;59.10;;;;;;5035031;28;20012;-71
2022/05/06 12:37:10;;;;;;;;;;;28.30;58.90;;;;;;5034993;28;20434;-71
2022/05/06 12:39:58;;;;;;;;;;;28.10;57.80;;;;;;5034643;28;19927;-71
2022/05/06 12:42:23;;;;;;;;;;;27.90;57.70;;;;;;5034892;28;19905;-71
2022/05/06 12:44:49;;;;;;;;;;;27.70;59.00;;;;;;5034530;28;20269;-71
2022/05/06 12:49:59;;;;;;;;;;;27.80;58.50;;;;;;5034775;28;19916;-71
2022/05/06 12:52:25;;;;;;;;;;;28.10;60.10;;;;;;5034343;28;19909;-71
2022/05/06 12:54:50;;;;;;;;;;;27.60;59.70;;;;;;5033728;28;20324;-71
2022/05/06 12:57:17;;;;;;;;;;;27.40;60.80;;;;;;5034294;28;19948;-71
2022/05/06 12:59:43;;;;;;;;;;;27.30;59.40;;;;;;5034572;28;19905;-71
2022/05/06 13:02:09;;;;;;;;;;;28.00;58.50;;;;;;5034275;28;20400;-72
2022/05/06 13:04:34;;;;;;;;;;;28.40;56.30;;;;;;5034465;28;20384;-71
2022/05/06 13:07:00;;;;;;;;;;;28.30;58.80;;;;;;5016388;28;19912;-72
2022/05/06 13:09:25;;;;;;;;;;;28.00;59.30;;;;;;5034166;28;19927;-72
2022/05/06 13:11:51;;;;;;;;;;;27.50;58.90;;;;;;5034303;28;20378;-71
2022/05/06 13:14:16;;;;;;;;;;;27.40;60.50;;;;;;5034016;28;20007;-71
2022/05/06 13:16:42;;;;;;;;;;;27.60;58.60;;;;;;5033942;28;19905;-72
2022/05/06 13:19:09;;;;;;;;;;;27.20;59.50;;;;;;5034258;28;19920;-71
2022/05/06 13:21:35;;;;;;;;;;;26.40;60.20;;;;;;5016273;28;19909;-72
2022/05/06 13:24:00;;;;;;;;;;;26.60;60.30;;;;;;5033737;28;20267;-72
2022/05/06 13:26:26;;;;;;;;;;;26.40;60.60;;;;;;5033867;28;19905;-71
2022/05/06 13:28:52;;;;;;;;;;;26.40;61.50;;;;;;5034130;28;19909;-70
2022/05/06 13:31:18;;;;;;;;;;;25.90;62.50;;;;;;5033680;28;19913;-71
2022/05/06 13:33:44;;;;;;;;;;;25.50;62.90;;;;;;5033980;28;19912;-71
2022/05/06 13:36:09;;;;;;;;;;;25.20;62.60;;;;;;5033738;28;19909;-72
2022/05/06 13:38:35;;;;;;;;;;;25.00;63.80;;;;;;5033723;28;19905;-71
2022/05/06 13:41:00;;;;;;;;;;;25.30;63.60;;;;;;5033925;28;19905;-71
2022/05/06 13:43:26;;;;;;;;;;;25.50;64.70;;;;;;5033567;28;19905;-70
2022/05/06 13:45:51;;;;;;;;;;;25.50;62.80;;;;;;5033643;28;19905;-71
2022/05/06 13:48:17;;;;;;;;;;;25.40;64.80;;;;;;5033931;28;20353;-70
2022/05/06 13:50:42;;;;;;;;;;;25.20;64.00;;;;;;5033815;28;19916;-71
2022/05/06 13:53:09;;;;;;;;;;;24.80;64.10;;;;;;5034177;28;19905;-71
2022/05/06 14:01:03;;;;;;;;;;;23.80;67.20;;;;;;5033341;28;19913;-71
2022/05/06 14:03:29;;;;;;;;;;;24.10;68.10;;;;;;5033771;28;19905;-70
2022/05/06 14:05:54;;;;;;;;;;;24.50;66.20;;;;;;5035666;28;19913;-71
2022/05/06 14:08:20;;;;;;;;;;;24.70;64.90;;;;;;5037804;28;19909;-71
2022/05/06 14:10:45;;;;;;;;;;;25.10;65.60;;;;;;5037671;28;19916;-73
2022/05/06 14:13:11;;;;;;;;;;;25.50;64.20;;;;;;5037386;28;19905;-71
2022/05/06 14:15:37;;;;;;;;;;;25.60;64.10;;;;;;5037570;28;19970;-72
2022/05/06 14:18:02;;;;;;;;;;;25.10;64.20;;;;;;5037332;28;20408;-71
2022/05/06 14:20:28;;;;;;;;;;;24.90;64.70;;;;;;5037252;28;19905;-71
2022/05/06 14:22:53;;;;;;;;;;;24.80;65.60;;;;;;5037775;28;19959;-71
2022/05/06 14:25:19;;;;;;;;;;;24.70;66.40;;;;;;5036839;28;19963;-71
2022/05/06 14:27:46;;;;;;;;;;;24.80;66.60;;;;;;5037176;28;19905;-71
2022/05/06 14:30:12;;;;;;;;;;;24.80;67.30;;;;;;5037058;28;19912;-71
2022/05/06 14:32:37;;;;;;;;;;;24.80;68.00;;;;;;5037085;28;20365;-71
2022/05/06 14:35:21;;;;;;;;;;;24.90;68.80;;;;;;5037056;28;19958;-71
2022/05/06 14:37:48;;;;;;;;;;;24.80;67.30;;;;;;5037273;28;20296;-71
2022/05/06 14:40:14;;;;;;;;;;;25.00;66.30;;;;;;5036862;28;19905;-71
2022/05/06 14:42:40;;;;;;;;;;;25.00;66.30;;;;;;5036855;28;19916;-71
2022/05/06 14:45:06;;;;;;;;;;;25.00;68.80;;;;;;5037130;28;20281;-71
2022/05/06 14:47:31;;;;;;;;;;;25.00;68.40;;;;;;5037060;28;20354;-70
2022/05/06 14:49:57;;;;;;;;;;;24.60;70.20;;;;;;5037276;28;19909;-71
2022/05/06 14:52:23;;;;;;;;;;;24.50;69.80;;;;;;5036612;28;20382;-71
2022/05/06 14:54:52;;;;;;;;;;;24.30;71.00;;;;;;5036638;28;19909;-71
2022/05/06 14:57:18;;;;;;;;;;;24.00;70.50;;;;;;5037127;28;19905;-71
2022/05/06 14:59:43;;;;;;;;;;;23.70;71.80;;;;;;5036830;28;19905;-71
2022/05/06 15:02:09;;;;;;;;;;;23.60;72.20;;;;;;5036547;28;20254;-71
2022/05/06 15:04:35;;;;;;;;;;;23.30;73.00;;;;;;5036501;28;19912;-71
2022/05/06 15:07:00;;;;;;;;;;;23.20;73.10;;;;;;5036656;28;19906;-70